Time;durP1;ratioP1;P1;durP2;ratioP2;P2;SDS_P1;SDS_P2;PMS_P1;PMS_P2;Temp;Humidity;BMP_temperature;BMP_pressure;BME280_temperature;BME280_humidity;BME280_pressure;Samples;Min_cycle;Max_cycle;Signal;HPM_P1;HPM_P2
2022/07/14 00:00:25;;;;;;;1.80;1.13;;;25.90;92.60;;;;;;5087293;28;20453;-81
2022/07/14 00:02:57;;;;;;;1.30;1.20;;;25.80;92.30;;;;;;5087837;28;20472;-81
2022/07/14 00:05:26;;;;;;;1.07;0.97;;;25.80;92.70;;;;;;5088300;28;20500;-81
2022/07/14 00:07:54;;;;;;;1.70;1.40;;;25.80;91.60;;;;;;5083923;28;20465;-81
2022/07/14 00:10:23;;;;;;;1.23;1.13;;;25.80;91.60;;;;;;5084656;28;20561;-81
2022/07/14 00:12:51;;;;;;;1.20;1.10;;;25.70;91.40;;;;;;5087457;28;20449;-80
2022/07/14 00:15:20;;;;;;;1.87;1.10;;;25.70;90.70;;;;;;5087282;28;20532;-81
2022/07/14 00:17:49;;;;;;;2.00;1.10;;;25.70;91.20;;;;;;5088041;28;20454;-80
2022/07/14 00:20:20;;;;;;;3.67;1.53;;;25.70;91.90;;;;;;5092732;28;20436;-80
2022/07/14 00:22:49;;;;;;;0.90;0.90;;;25.70;92.10;;;;;;5088197;28;20549;-80
2022/07/14 00:25:17;;;;;;;1.07;1.00;;;25.70;91.50;;;;;;5087392;28;20491;-81
2022/07/14 00:27:46;;;;;;;1.30;1.20;;;25.60;91.90;;;;;;5087717;28;20455;-81
2022/07/14 00:30:14;;;;;;;1.73;1.00;;;25.60;91.10;;;;;;5089860;28;20457;-81
2022/07/14 00:32:43;;;;;;;2.30;1.10;;;25.50;92.50;;;;;;5087832;28;20469;-81
2022/07/14 00:35:11;;;;;;;3.43;1.10;;;25.50;91.90;;;;;;5089968;28;20461;-81
2022/07/14 00:37:41;;;;;;;2.60;1.00;;;25.50;92.50;;;;;;5088286;28;20465;-81
2022/07/14 00:40:11;;;;;;;1.77;1.47;;;25.50;93.10;;;;;;5085917;28;20485;-80
2022/07/14 00:42:40;;;;;;;1.27;1.00;;;25.40;91.30;;;;;;5085363;28;21104;-81
2022/07/14 00:45:11;;;;;;;1.07;1.00;;;25.40;91.00;;;;;;5082874;28;20473;-81
2022/07/14 00:47:40;;;;;;;1.67;1.00;;;25.40;91.60;;;;;;5087550;28;20461;-82
2022/07/14 00:50:11;;;;;;;1.40;1.30;;;25.40;92.00;;;;;;5087548;28;20469;-81
2022/07/14 00:52:43;;;;;;;1.03;1.00;;;25.30;91.50;;;;;;5084148;28;20569;-80
2022/07/14 00:55:12;;;;;;;2.50;1.30;;;25.30;92.10;;;;;;5086085;28;20541;-82
2022/07/14 00:57:41;;;;;;;1.00;1.00;;;25.30;92.40;;;;;;5082791;28;20458;-82
2022/07/14 01:00:12;;;;;;;1.50;1.10;;;25.30;92.40;;;;;;5086305;28;20969;-81
2022/07/14 01:02:41;;;;;;;1.00;1.00;;;25.20;90.60;;;;;;5084264;28;20526;-81
2022/07/14 01:05:09;;;;;;;1.07;1.00;;;25.20;90.40;;;;;;5085005;28;20453;-81
2022/07/14 01:07:38;;;;;;;1.10;1.00;;;25.20;91.70;;;;;;5084976;28;20474;-81
2022/07/14 01:10:09;;;;;;;0.87;0.83;;;25.20;91.20;;;;;;5085190;28;20506;-82
2022/07/14 01:12:38;;;;;;;0.90;0.90;;;25.20;90.70;;;;;;5082654;28;20965;-81
2022/07/14 01:15:07;;;;;;;1.10;1.00;;;25.10;92.00;;;;;;5085724;28;20454;-81
2022/07/14 01:17:35;;;;;;;1.33;1.20;;;25.10;91.60;;;;;;5082533;28;21125;-82
2022/07/14 01:20:04;;;;;;;1.10;0.97;;;25.10;92.40;;;;;;5086671;28;20575;-82
2022/07/14 01:22:34;;;;;;;1.27;1.17;;;25.00;90.00;;;;;;5085653;28;20537;-81
2022/07/14 01:25:06;;;;;;;1.10;1.03;;;25.00;91.60;;;;;;5081827;28;20447;-81
2022/07/14 01:27:35;;;;;;;2.33;1.23;;;25.00;91.30;;;;;;5088122;28;20450;-81
2022/07/14 01:30:04;;;;;;;1.27;1.17;;;24.90;92.10;;;;;;5085072;28;20482;-82
2022/07/14 01:32:32;;;;;;;1.10;1.00;;;24.90;89.10;;;;;;5089277;28;21001;-81
2022/07/14 01:35:03;;;;;;;2.20;1.23;;;24.90;90.70;;;;;;5088512;28;20991;-81
2022/07/14 01:37:32;;;;;;;3.17;1.33;;;24.80;88.70;;;;;;5083478;28;20453;-81
2022/07/14 01:40:02;;;;;;;1.30;0.90;;;24.80;87.00;;;;;;5081478;28;20450;-81
2022/07/14 01:42:31;;;;;;;1.20;1.00;;;24.80;83.30;;;;;;5086708;28;20464;-81
2022/07/14 01:44:59;;;;;;;1.60;1.00;;;24.80;84.40;;;;;;5089764;28;20476;-81
2022/07/14 01:47:27;;;;;;;1.53;1.20;;;24.80;87.10;;;;;;5088612;28;20454;-81
2022/07/14 01:49:55;;;;;;;1.13;1.13;;;24.80;88.70;;;;;;5085954;28;20469;-81
2022/07/14 01:52:24;;;;;;;1.30;1.20;;;24.80;89.20;;;;;;5087633;28;20559;-81
2022/07/14 01:54:52;;;;;;;0.97;0.90;;;24.70;90.10;;;;;;5080168;28;20478;-82
2022/07/14 01:57:22;;;;;;;1.30;1.20;;;24.70;88.80;;;;;;5078744;28;20984;-82
2022/07/14 01:59:50;;;;;;;1.03;1.03;;;24.70;88.90;;;;;;5085315;28;21078;-82
2022/07/14 02:02:19;;;;;;;3.33;1.17;;;24.70;86.60;;;;;;5084154;28;20536;-81
2022/07/14 02:04:47;;;;;;;1.40;1.30;;;24.60;87.80;;;;;;5077853;28;20538;-82
2022/07/14 02:07:15;;;;;;;0.90;0.90;;;24.70;86.60;;;;;;5086747;28;20458;-80
2022/07/14 02:12:31;;;;;;;1.67;1.10;;;24.60;86.20;;;;;;5085377;28;20460;-82
2022/07/14 02:14:59;;;;;;;2.27;0.87;;;24.60;86.40;;;;;;5083769;28;20518;-81
2022/07/14 02:17:28;;;;;;;1.13;1.03;;;24.40;86.50;;;;;;5082069;28;20551;-81
2022/07/14 02:19:56;;;;;;;1.17;0.90;;;24.40;85.90;;;;;;5083728;28;20468;-81
2022/07/14 02:22:24;;;;;;;1.63;1.53;;;24.40;86.00;;;;;;5084535;28;20515;-81
2022/07/14 02:24:52;;;;;;;1.47;1.17;;;24.40;86.20;;;;;;5088394;28;20829;-81
2022/07/14 02:27:20;;;;;;;1.30;1.00;;;24.30;85.10;;;;;;5077001;28;20458;-81
2022/07/14 02:29:50;;;;;;;1.43;1.00;;;24.20;82.60;;;;;;5083890;28;20899;-80
2022/07/14 02:32:18;;;;;;;2.20;1.10;;;24.20;82.10;;;;;;5076985;28;20461;-82
2022/07/14 02:34:47;;;;;;;0.90;0.73;;;24.20;81.50;;;;;;5085599;28;20878;-81
2022/07/14 02:37:15;;;;;;;1.20;1.10;;;24.10;76.50;;;;;;5082215;28;20446;-81
2022/07/14 02:39:43;;;;;;;0.80;0.80;;;24.10;77.50;;;;;;5079527;28;20454;-81
2022/07/14 02:42:11;;;;;;;0.80;0.80;;;24.20;73.70;;;;;;5085735;28;20449;-81
2022/07/14 02:44:39;;;;;;;0.93;0.90;;;24.20;77.30;;;;;;5083264;28;20505;-81
2022/07/14 02:47:09;;;;;;;0.83;0.83;;;24.10;79.40;;;;;;5085627;28;20449;-80
2022/07/14 02:49:38;;;;;;;1.50;1.00;;;24.10;76.70;;;;;;5083325;28;20454;-81
2022/07/14 02:52:06;;;;;;;1.33;1.23;;;24.10;77.60;;;;;;5084201;28;20474;-80
2022/07/14 02:54:35;;;;;;;1.27;0.97;;;24.10;77.10;;;;;;5083640;28;20462;-81
2022/07/14 02:57:03;;;;;;;0.73;0.73;;;24.10;75.60;;;;;;5083965;28;20457;-80
2022/07/14 02:59:31;;;;;;;1.30;0.90;;;24.00;78.40;;;;;;5082866;28;20445;-80
2022/07/14 03:01:59;;;;;;;2.60;1.00;;;24.00;75.30;;;;;;5081340;28;20439;-80
2022/07/14 03:04:29;;;;;;;0.93;0.90;;;24.00;72.50;;;;;;5083587;28;20480;-80
2022/07/14 03:06:57;;;;;;;1.40;0.90;;;24.00;72.30;;;;;;5083215;28;20459;-80
2022/07/14 03:09:26;;;;;;;0.93;0.93;;;24.00;73.40;;;;;;5078818;28;20450;-82
2022/07/14 03:11:55;;;;;;;1.63;1.10;;;23.90;68.00;;;;;;5084523;28;20467;-80
2022/07/14 03:14:23;;;;;;;0.87;0.87;;;23.90;88.10;;;;;;5083563;28;20697;-80
2022/07/14 03:16:52;;;;;;;0.90;0.90;;;23.90;69.90;;;;;;5080942;28;20545;-80
2022/07/14 03:19:28;;;;;;;1.23;1.00;;;23.80;69.10;;;;;;5090229;28;20441;-81
2022/07/14 03:21:57;;;;;;;3.50;1.20;;;23.80;70.10;;;;;;5084062;28;20508;-80
2022/07/14 03:24:25;;;;;;;1.00;1.00;;;23.80;71.30;;;;;;5084158;28;20554;-81
2022/07/14 03:26:54;;;;;;;1.83;0.90;;;23.80;89.40;;;;;;5084030;28;20446;-81
2022/07/14 03:29:23;;;;;;;0.93;0.93;;;23.80;70.40;;;;;;5084644;28;20481;-81
2022/07/14 03:31:52;;;;;;;1.17;1.10;;;23.70;68.30;;;;;;5078890;28;20481;-80
2022/07/14 03:34:20;;;;;;;1.90;1.40;;;23.70;69.20;;;;;;5080927;28;20481;-81
2022/07/14 03:36:50;;;;;;;1.10;1.10;;;23.70;70.80;;;;;;5082035;28;20473;-81
2022/07/14 03:39:18;;;;;;;1.27;0.90;;;23.70;71.10;;;;;;5082667;28;20503;-81
2022/07/14 03:41:46;;;;;;;0.87;0.87;;;23.60;70.70;;;;;;5084092;28;20449;-82
2022/07/14 03:44:14;;;;;;;0.83;0.83;;;23.60;68.90;;;;;;5082474;28;20485;-81
2022/07/14 03:46:43;;;;;;;0.80;0.80;;;23.60;70.70;;;;;;5080316;28;20444;-81
2022/07/14 03:49:11;;;;;;;0.97;0.90;;;23.50;68.10;;;;;;5080646;28;20485;-81
2022/07/14 03:51:42;;;;;;;2.07;0.97;;;23.50;65.40;;;;;;5079944;28;21219;-82
2022/07/14 03:54:12;;;;;;;2.20;1.07;;;23.50;65.30;;;;;;5081682;28;20454;-82
2022/07/14 03:56:41;;;;;;;1.30;1.00;;;23.50;70.20;;;;;;5079533;28;20457;-82
2022/07/14 03:59:10;;;;;;;1.20;0.90;;;23.40;66.20;;;;;;5077801;28;20457;-82
2022/07/14 04:01:39;;;;;;;1.13;1.00;;;23.40;69.50;;;;;;5080841;28;20471;-82
2022/07/14 04:04:07;;;;;;;2.00;0.90;;;23.40;69.30;;;;;;5080160;28;20472;-82
2022/07/14 04:06:35;;;;;;;0.80;0.80;;;23.40;68.90;;;;;;5080791;28;20481;-83
2022/07/14 04:09:03;;;;;;;1.60;1.07;;;23.40;68.90;;;;;;5081723;28;20469;-81
2022/07/14 04:11:33;;;;;;;0.83;0.83;;;23.40;69.30;;;;;;5081371;28;20519;-81
2022/07/14 04:14:01;;;;;;;1.03;0.93;;;23.40;67.40;;;;;;5079737;28;20477;-81
2022/07/14 04:16:30;;;;;;;1.30;0.97;;;23.30;67.20;;;;;;5075501;28;20446;-81
2022/07/14 04:18:58;;;;;;;0.80;0.80;;;23.30;69.40;;;;;;5082725;28;21043;-81
2022/07/14 04:21:26;;;;;;;1.00;0.90;;;23.30;70.90;;;;;;5085766;28;20445;-81
2022/07/14 04:23:54;;;;;;;1.20;1.20;;;23.30;66.70;;;;;;5086206;28;20480;-81
2022/07/14 04:26:22;;;;;;;1.23;1.07;;;23.20;66.20;;;;;;5090926;28;20864;-81
2022/07/14 04:28:52;;;;;;;1.20;1.13;;;23.20;65.90;;;;;;5091736;28;20532;-82
2022/07/14 04:31:21;;;;;;;1.57;1.10;;;23.20;67.30;;;;;;5086015;28;20476;-82
2022/07/14 04:33:49;;;;;;;1.07;1.00;;;23.20;65.60;;;;;;5083977;28;20988;-82
2022/07/14 04:36:18;;;;;;;0.80;0.80;;;23.20;68.90;;;;;;5080434;28;20454;-78
2022/07/14 04:38:46;;;;;;;1.10;1.10;;;23.20;68.50;;;;;;5080638;28;20449;-78
2022/07/14 04:41:14;;;;;;;1.40;1.10;;;23.20;70.60;;;;;;5086794;28;20441;-80
2022/07/14 04:43:43;;;;;;;1.10;1.00;;;23.10;71.70;;;;;;5084655;28;20552;-78
2022/07/14 04:46:12;;;;;;;1.57;1.00;;;23.00;68.20;;;;;;5075192;28;20445;-78
2022/07/14 04:54:09;;;;;;;0.90;0.90;;;23.00;69.50;;;;;;5078768;28;21008;-77
2022/07/14 04:56:37;;;;;;;1.17;0.90;;;23.10;67.40;;;;;;5081709;28;20453;-77
2022/07/14 04:59:25;;;;;;;1.27;1.17;;;23.10;70.20;;;;;;5082463;28;20446;-78
2022/07/14 05:01:55;;;;;;;1.20;0.90;;;23.10;68.40;;;;;;5078003;28;20834;-77
2022/07/14 05:04:24;;;;;;;1.73;1.03;;;23.20;68.30;;;;;;5086009;28;20551;-78
2022/07/14 05:06:52;;;;;;;1.53;1.40;;;23.20;70.20;;;;;;5078798;28;21063;-77
2022/07/14 05:09:21;;;;;;;1.40;1.10;;;23.20;73.40;;;;;;5080514;28;20461;-77
2022/07/14 05:11:49;;;;;;;1.20;1.10;;;23.30;71.60;;;;;;5082497;28;20477;-79
2022/07/14 05:14:18;;;;;;;1.43;1.30;;;23.30;73.50;;;;;;5080837;28;20489;-80
2022/07/14 05:16:48;;;;;;;1.30;1.20;;;23.30;74.30;;;;;;5079933;28;20454;-80
2022/07/14 05:19:38;;;;;;;1.30;1.20;;;23.40;75.70;;;;;;5080929;28;20455;-81
2022/07/14 05:22:06;;;;;;;3.33;1.10;;;23.50;77.30;;;;;;5081790;28;20452;-80
2022/07/14 05:24:35;;;;;;;1.33;1.20;;;23.50;78.80;;;;;;5085225;28;20504;-81
2022/07/14 05:27:03;;;;;;;1.47;1.37;;;23.50;76.60;;;;;;5083421;28;20446;-82
2022/07/14 05:29:32;;;;;;;1.20;1.10;;;23.60;78.60;;;;;;5084419;28;20454;-82
2022/07/14 05:32:00;;;;;;;1.40;1.20;;;23.60;78.00;;;;;;5088511;28;20477;-82
2022/07/14 05:34:30;;;;;;;1.30;1.13;;;23.70;77.40;;;;;;5083708;28;20502;-82
2022/07/14 05:37:02;;;;;;;1.70;1.00;;;23.70;76.80;;;;;;5089077;28;20505;-81
2022/07/14 05:39:30;;;;;;;1.93;1.13;;;23.70;78.50;;;;;;5088156;28;20449;-82
2022/07/14 05:41:59;;;;;;;1.40;1.10;;;23.80;80.50;;;;;;5087964;28;21014;-82
2022/07/14 05:44:28;;;;;;;1.63;1.23;;;23.80;77.90;;;;;;5085800;28;20481;-82
2022/07/14 05:46:56;;;;;;;1.17;1.07;;;23.80;80.80;;;;;;5087812;28;20461;-82
2022/07/14 05:49:25;;;;;;;2.10;1.00;;;23.90;79.80;;;;;;5082370;28;20530;-82
2022/07/14 05:51:53;;;;;;;2.43;1.10;;;23.90;80.60;;;;;;5082720;28;20576;-82
2022/07/14 05:54:23;;;;;;;2.07;1.27;;;23.80;78.40;;;;;;5091245;28;20481;-82
2022/07/14 05:56:51;;;;;;;1.97;1.00;;;23.80;82.00;;;;;;5089646;28;20453;-82
2022/07/14 05:59:19;;;;;;;1.53;1.00;;;24.00;81.50;;;;;;5084193;28;20454;-82
2022/07/14 06:02:08;;;;;;;1.00;1.00;;;24.00;81.00;;;;;;5084662;28;20839;-82
2022/07/14 06:04:36;;;;;;;1.20;1.10;;;24.00;81.30;;;;;;5085684;28;20462;-80
2022/07/14 06:07:04;;;;;;;0.90;0.90;;;24.10;81.10;;;;;;5089122;28;20476;-82
2022/07/14 06:09:35;;;;;;;1.20;1.10;;;24.10;82.90;;;;;;5081986;28;20466;-82
2022/07/14 06:12:05;;;;;;;1.20;1.10;;;24.20;82.90;;;;;;5090338;28;20490;-82
2022/07/14 06:14:34;;;;;;;1.23;1.10;;;24.20;81.10;;;;;;5080735;28;20234;-82
2022/07/14 06:17:02;;;;;;;0.90;0.90;;;24.30;82.10;;;;;;5085088;28;20512;-81
2022/07/14 06:19:30;;;;;;;1.37;1.27;;;24.40;83.70;;;;;;5088176;28;20590;-81
2022/07/14 06:21:58;;;;;;;1.07;1.00;;;24.40;88.10;;;;;;5088886;28;20441;-81
2022/07/14 06:24:26;;;;;;;1.83;1.20;;;24.50;87.50;;;;;;5092802;28;20476;-82
2022/07/14 06:26:56;;;;;;;2.40;1.10;;;24.60;87.10;;;;;;5087951;28;20464;-83
2022/07/14 06:29:24;;;;;;;2.57;1.37;;;24.60;98.60;;;;;;5090366;28;20538;-82
2022/07/14 06:31:55;;;;;;;1.83;0.97;;;24.70;90.70;;;;;;5087227;28;20965;-83
2022/07/14 06:34:24;;;;;;;1.47;1.03;;;24.70;90.90;;;;;;5084208;28;20487;-82
2022/07/14 06:36:53;;;;;;;1.20;1.10;;;24.70;86.30;;;;;;5085134;28;20456;-82
2022/07/14 06:39:21;;;;;;;1.20;1.00;;;24.80;89.00;;;;;;5086647;28;20485;-82
2022/07/14 06:41:50;;;;;;;1.10;1.00;;;24.80;90.20;;;;;;5080027;28;20969;-82
2022/07/14 06:44:19;;;;;;;2.17;1.50;;;24.90;90.10;;;;;;5083543;28;20474;-82
2022/07/14 06:46:54;;;;;;;0.90;0.90;;;24.90;89.80;;;;;;5080746;28;20821;-83
2022/07/14 06:49:23;;;;;;;1.37;1.27;;;25.00;89.10;;;;;;5083826;28;20473;-82
2022/07/14 06:51:51;;;;;;;1.70;1.13;;;25.00;88.10;;;;;;5084753;28;20446;-82
2022/07/14 06:54:25;;;;;;;1.20;1.10;;;25.00;88.20;;;;;;5087269;28;20484;-80
2022/07/14 06:56:53;;;;;;;1.23;1.07;;;25.00;86.60;;;;;;5087305;28;20476;-82
2022/07/14 06:59:23;;;;;;;0.90;0.90;;;25.10;88.40;;;;;;5087299;28;20446;-82
2022/07/14 07:01:51;;;;;;;2.60;0.87;;;25.20;90.70;;;;;;5080909;28;20459;-82
2022/07/14 07:04:20;;;;;;;1.07;1.00;;;25.30;91.20;;;;;;5086344;28;20469;-82
2022/07/14 07:06:54;;;;;;;0.97;0.97;;;25.40;91.30;;;;;;5081810;28;20437;-82
2022/07/14 07:09:22;;;;;;;1.10;1.00;;;25.40;91.20;;;;;;5091432;28;20457;-82
2022/07/14 07:11:50;;;;;;;1.23;0.90;;;25.50;91.00;;;;;;5091310;28;20445;-83
2022/07/14 07:14:19;;;;;;;1.17;0.90;;;25.60;91.60;;;;;;5099946;28;21139;-82
2022/07/14 07:16:51;;;;;;;1.37;0.90;;;25.70;92.30;;;;;;5087086;28;20454;-82
2022/07/14 07:19:20;;;;;;;0.80;0.80;;;25.10;90.20;;;;;;5090985;28;20485;-82
2022/07/14 07:21:49;;;;;;;1.73;1.20;;;25.70;91.80;;;;;;5090565;28;20478;-81
2022/07/14 07:24:18;;;;;;;1.20;1.10;;;25.80;91.90;;;;;;5084538;28;20981;-81
2022/07/14 07:26:46;;;;;;;1.30;1.20;;;25.90;93.40;;;;;;5079114;28;20478;-82
2022/07/14 07:29:14;;;;;;;2.37;1.20;;;25.90;94.20;;;;;;5087463;28;20449;-82
2022/07/14 07:31:43;;;;;;;2.47;0.90;;;26.00;93.50;;;;;;5083067;28;20461;-82
2022/07/14 07:34:13;;;;;;;2.40;1.30;;;26.00;93.10;;;;;;5081257;28;20853;-81
2022/07/14 07:36:41;;;;;;;1.00;0.90;;;25.90;92.90;;;;;;5077304;28;20457;-82
2022/07/14 07:39:29;;;;;;;0.97;0.90;;;26.00;93.50;;;;;;5086773;28;20446;-82
2022/07/14 07:42:00;;;;;;;1.90;1.20;;;26.00;93.20;;;;;;5081351;28;20465;-82
2022/07/14 07:44:30;;;;;;;2.60;1.03;;;26.00;93.50;;;;;;5083144;28;21271;-83
2022/07/14 07:46:59;;;;;;;1.33;0.90;;;26.10;93.40;;;;;;5083590;28;20451;-82
2022/07/14 07:49:29;;;;;;;0.90;0.90;;;26.10;94.40;;;;;;5080494;28;20458;-82
2022/07/14 07:51:58;;;;;;;1.07;0.93;;;26.10;94.10;;;;;;5081216;28;20453;-82
2022/07/14 07:54:27;;;;;;;3.00;1.00;;;26.10;92.10;;;;;;5086859;28;20477;-84
2022/07/14 07:57:16;;;;;;;1.10;1.10;;;26.20;93.90;;;;;;5088703;28;20879;-82
2022/07/14 07:59:46;;;;;;;1.17;1.00;;;26.20;94.20;;;;;;5088926;28;20491;-82
2022/07/14 08:02:14;;;;;;;0.80;0.80;;;26.30;95.10;;;;;;5085744;28;20960;-82
2022/07/14 08:04:44;;;;;;;1.20;1.10;;;26.40;95.30;;;;;;5089177;28;20643;-82
2022/07/14 08:07:13;;;;;;;1.20;1.07;;;26.30;94.60;;;;;;5088431;28;20437;-82
2022/07/14 08:09:41;;;;;;;2.70;1.20;;;26.40;96.30;;;;;;5082201;28;20443;-82
2022/07/14 08:12:09;;;;;;;1.53;1.27;;;26.40;94.80;;;;;;5080940;28;20596;-82
2022/07/14 08:14:51;;;;;;;2.13;1.00;;;26.40;94.10;;;;;;5086568;28;20469;-83
2022/07/14 08:17:22;;;;;;;0.90;0.90;;;26.50;94.40;;;;;;5089408;28;20445;-82
2022/07/14 08:19:52;;;;;;;1.67;1.13;;;26.50;94.10;;;;;;5087862;28;21025;-81
2022/07/14 08:22:25;;;;;;;0.90;0.90;;;26.60;94.60;;;;;;5088453;28;20460;-82
2022/07/14 08:24:54;;;;;;;2.60;0.90;;;26.60;94.00;;;;;;5086011;28;20477;-83
2022/07/14 08:27:24;;;;;;;2.83;0.90;;;26.60;94.80;;;;;;5099693;28;20737;-83
2022/07/14 08:29:52;;;;;;;0.90;0.90;;;26.60;92.50;;;;;;5092127;28;20774;-82
2022/07/14 08:32:34;;;;;;;1.00;1.00;;;26.70;94.20;;;;;;5089620;28;20449;-82
2022/07/14 08:35:06;;;;;;;1.07;1.00;;;26.70;94.30;;;;;;5086879;28;20489;-82
2022/07/14 08:37:36;;;;;;;1.10;1.00;;;26.80;93.00;;;;;;5084990;28;20837;-82
2022/07/14 08:40:06;;;;;;;0.97;0.97;;;26.90;93.60;;;;;;5089304;28;20437;-82
2022/07/14 08:42:35;;;;;;;2.63;1.10;;;27.00;94.90;;;;;;5089080;28;20472;-82
2022/07/14 08:45:08;;;;;;;1.13;1.03;;;27.00;95.00;;;;;;5090044;28;20465;-84
2022/07/14 08:47:38;;;;;;;1.10;1.00;;;27.00;94.90;;;;;;5085633;28;20456;-82
2022/07/14 08:50:10;;;;;;;3.20;1.30;;;27.00;94.90;;;;;;5089062;28;20937;-83
2022/07/14 08:52:39;;;;;;;0.93;0.93;;;27.10;94.10;;;;;;5088439;28;20441;-82
2022/07/14 08:55:10;;;;;;;3.10;1.00;;;27.10;96.70;;;;;;5090983;28;20470;-83
2022/07/14 08:57:39;;;;;;;3.77;0.90;;;27.10;94.10;;;;;;5082659;28;20447;-83
2022/07/14 09:00:11;;;;;;;1.30;1.20;;;27.10;93.70;;;;;;5084704;28;21164;-83
2022/07/14 09:02:42;;;;;;;1.17;1.07;;;27.10;95.00;;;;;;5087169;28;20858;-83
2022/07/14 09:05:32;;;;;;;1.10;1.00;;;27.20;96.00;;;;;;5088634;28;20495;-83
2022/07/14 09:08:00;;;;;;;1.07;1.00;;;27.20;95.50;;;;;;5084003;28;20842;-83
2022/07/14 09:10:30;;;;;;;2.60;0.97;;;27.30;95.20;;;;;;5079867;28;20485;-83
2022/07/14 09:13:21;;;;;;;1.03;0.90;;;27.30;93.10;;;;;;5081873;28;20474;-83
2022/07/14 09:15:50;;;;;;;5.40;1.10;;;27.40;92.10;;;;;;5082432;28;20503;-81
2022/07/14 09:18:23;;;;;;;1.10;1.00;;;27.40;92.60;;;;;;5086143;28;20446;-83
2022/07/14 09:20:58;;;;;;;1.57;0.87;;;27.60;91.50;;;;;;5082957;28;20453;-83
2022/07/14 09:23:29;;;;;;;0.87;0.80;;;27.60;91.60;;;;;;5089192;28;20467;-83
2022/07/14 09:26:12;;;;;;;1.00;0.90;;;27.70;93.00;;;;;;5083640;28;20457;-84
2022/07/14 09:28:41;;;;;;;0.80;0.80;;;27.70;92.10;;;;;;5084351;28;20950;-83
2022/07/14 09:31:22;;;;;;;0.70;0.70;;;27.70;92.70;;;;;;5089400;28;20489;-83
2022/07/14 09:33:51;;;;;;;0.80;0.80;;;27.70;92.70;;;;;;5089664;28;20489;-83
2022/07/14 09:36:32;;;;;;;1.10;0.80;;;27.70;87.70;;;;;;5087753;28;20458;-83
2022/07/14 09:39:06;;;;;;;1.70;0.90;;;27.70;87.20;;;;;;5082171;28;21199;-83
2022/07/14 09:41:37;;;;;;;1.53;0.93;;;27.70;87.60;;;;;;5080050;28;20447;-83
2022/07/14 09:44:09;;;;;;;1.50;0.83;;;27.70;85.70;;;;;;5084084;28;20473;-84
2022/07/14 09:46:49;;;;;;;1.07;1.00;;;27.70;83.70;;;;;;5081044;28;20465;-83
2022/07/14 09:49:19;;;;;;;1.10;1.00;;;27.80;78.80;;;;;;5079264;28;20458;-82
2022/07/14 09:52:00;;;;;;;0.80;0.80;;;27.80;78.60;;;;;;5083802;28;20456;-83
2022/07/14 09:54:44;;;;;;;0.90;0.90;;;27.90;81.10;;;;;;5090451;28;21214;-84
2022/07/14 09:57:23;;;;;;;0.90;0.90;;;28.10;84.30;;;;;;5080427;28;20450;-83
2022/07/14 09:59:53;;;;;;;0.90;0.90;;;28.20;87.20;;;;;;5076032;28;20465;-83
2022/07/14 10:02:26;;;;;;;1.30;0.90;;;28.20;99.70;;;;;;5085583;28;20458;-83
2022/07/14 10:04:56;;;;;;;0.80;0.80;;;28.30;90.60;;;;;;5087339;28;20487;-83
2022/07/14 10:07:26;;;;;;;0.73;0.73;;;28.30;86.90;;;;;;5083478;28;20536;-83
2022/07/14 10:10:00;;;;;;;1.37;1.00;;;28.40;87.70;;;;;;5082443;28;21014;-84
2022/07/14 10:12:30;;;;;;;1.33;1.10;;;28.40;90.80;;;;;;5084749;28;21175;-84
2022/07/14 10:15:02;;;;;;;1.77;0.90;;;28.40;90.80;;;;;;5077780;28;20916;-85
2022/07/14 10:17:31;;;;;;;1.30;1.00;;;28.60;91.40;;;;;;5085644;28;20473;-84
2022/07/14 10:20:00;;;;;;;1.20;1.10;;;28.80;93.40;;;;;;5081371;28;20450;-84
2022/07/14 10:22:31;;;;;;;1.60;1.10;;;29.00;94.70;;;;;;5080126;28;20434;-84
2022/07/14 10:25:00;;;;;;;3.83;1.10;;;29.10;93.40;;;;;;5090751;28;20457;-85
2022/07/14 10:27:40;;;;;;;1.23;1.20;;;29.20;91.90;;;;;;5089962;28;20536;-85
2022/07/14 10:30:11;;;;;;;1.07;0.97;;;29.30;92.40;;;;;;5071977;28;20431;-85
2022/07/14 10:32:48;;;;;;;0.90;0.90;;;29.30;92.20;;;;;;5085149;28;20464;-85
2022/07/14 10:35:27;;;;;;;1.07;1.00;;;29.30;91.00;;;;;;5081067;28;20473;-85
2022/07/14 10:38:17;;;;;;;1.20;1.10;;;29.40;90.60;;;;;;5090395;28;20542;-85
2022/07/14 10:40:52;;;;;;;1.23;1.00;;;29.40;91.40;;;;;;5088614;28;20521;-85
2022/07/14 10:43:24;;;;;;;1.17;1.07;;;29.50;91.10;;;;;;5078582;28;21012;-85
2022/07/14 10:45:54;;;;;;;1.13;0.90;;;29.60;91.50;;;;;;5080957;28;20465;-85
2022/07/14 10:48:30;;;;;;;2.00;0.90;;;29.60;91.10;;;;;;5084474;28;20554;-85
2022/07/14 10:51:17;;;;;;;1.37;1.07;;;29.60;91.60;;;;;;5083998;28;20483;-85
2022/07/14 10:54:11;;;;;;;1.20;1.10;;;29.60;90.40;;;;;;5080530;28;20477;-85
2022/07/14 10:57:11;;;;;;;1.23;1.13;;;29.60;90.00;;;;;;5081663;28;20534;-85
2022/07/14 10:59:40;;;;;;;1.17;1.03;;;29.60;90.90;;;;;;5089966;28;20452;-85
2022/07/14 11:02:38;;;;;;;1.40;1.30;;;29.70;92.40;;;;;;5091413;28;20446;-85
2022/07/14 11:05:11;;;;;;;1.30;1.20;;;29.80;92.60;;;;;;5042601;28;21036;-85
2022/07/14 11:07:43;;;;;;;1.30;1.10;;;29.90;92.40;;;;;;5089937;28;20457;-84
2022/07/14 11:11:09;;;;;;;1.00;0.90;;;29.90;91.70;;;;;;5091363;28;20449;-85
2022/07/14 11:14:12;;;;;;;1.20;1.10;;;30.00;91.40;;;;;;5079041;28;20484;-85
2022/07/14 11:16:58;;;;;;;1.13;1.03;;;30.00;92.20;;;;;;5083403;28;20477;-85
2022/07/14 11:19:31;;;;;;;0.97;0.90;;;30.20;93.80;;;;;;5088680;28;20949;-85
2022/07/14 11:22:18;;;;;;;1.13;1.07;;;30.20;93.90;;;;;;5090654;28;20456;-85
2022/07/14 11:24:53;;;;;;;1.30;1.03;;;30.30;95.00;;;;;;5088755;28;20526;-85
2022/07/14 11:27:38;;;;;;;1.10;1.00;;;30.30;94.50;;;;;;5090476;28;20896;-86
2022/07/14 11:30:28;;;;;;;1.07;1.07;;;30.30;93.50;;;;;;5077363;28;20949;-85
2022/07/14 11:33:08;;;;;;;1.57;1.20;;;30.30;93.10;;;;;;5079300;28;20460;-85
2022/07/14 11:38:34;;;;;;;1.43;0.90;;;30.50;94.90;;;;;;5084277;28;20450;-85
2022/07/14 11:41:05;;;;;;;1.50;1.40;;;30.60;95.10;;;;;;5083224;28;20464;-85
2022/07/14 11:43:44;;;;;;;1.30;1.20;;;30.60;95.70;;;;;;5090238;28;20481;-85
2022/07/14 11:46:16;;;;;;;1.43;1.10;;;30.60;95.10;;;;;;5087530;28;20433;-84
2022/07/14 11:48:48;;;;;;;1.30;1.20;;;30.70;96.00;;;;;;5088097;28;20453;-85
2022/07/14 11:51:20;;;;;;;1.77;1.00;;;30.70;95.80;;;;;;5085541;28;20545;-85
2022/07/14 11:53:58;;;;;;;1.43;1.00;;;30.80;97.00;;;;;;5086318;28;20473;-84
2022/07/14 11:56:28;;;;;;;1.30;1.20;;;30.80;96.20;;;;;;5086688;28;20489;-85
2022/07/14 11:59:01;;;;;;;1.00;0.90;;;30.90;96.60;;;;;;5089839;28;20457;-84
2022/07/14 12:01:36;;;;;;;1.37;1.00;;;30.80;95.70;;;;;;5084462;28;20450;-85
2022/07/14 12:04:09;;;;;;;1.17;1.00;;;30.90;94.80;;;;;;5088683;28;20488;-84
2022/07/14 12:06:40;;;;;;;1.43;1.00;;;31.00;94.20;;;;;;5081307;28;20480;-85
2022/07/14 12:09:09;;;;;;;1.00;1.00;;;30.90;96.10;;;;;;5089525;28;20474;-84
2022/07/14 12:11:57;;;;;;;1.30;1.00;;;31.00;95.70;;;;;;5089107;28;20460;-85
2022/07/14 12:14:26;;;;;;;1.63;0.80;;;31.00;94.10;;;;;;5085662;28;20477;-84
2022/07/14 12:16:56;;;;;;;2.67;1.30;;;31.00;93.30;;;;;;5090022;28;20469;-85
2022/07/14 12:19:29;;;;;;;1.57;1.07;;;30.90;94.50;;;;;;5081561;28;20453;-85
2022/07/14 12:22:00;;;;;;;1.10;1.00;;;30.90;94.10;;;;;;5085620;28;20863;-84
2022/07/14 12:24:29;;;;;;;1.73;1.07;;;30.90;92.90;;;;;;5085906;28;20481;-85
2022/07/14 12:26:58;;;;;;;1.10;1.00;;;30.80;92.90;;;;;;5092662;28;20457;-85
2022/07/14 12:29:27;;;;;;;2.57;1.30;;;30.80;92.10;;;;;;5087066;28;20445;-85
2022/07/14 12:31:59;;;;;;;1.40;1.00;;;30.70;94.10;;;;;;5087866;28;20533;-85
2022/07/14 12:34:29;;;;;;;7.70;1.10;;;30.80;93.20;;;;;;5083332;28;20573;-84
2022/07/14 12:36:59;;;;;;;2.63;1.10;;;30.80;92.60;;;;;;5086312;28;20510;-84
2022/07/14 12:39:28;;;;;;;1.30;1.23;;;30.90;93.50;;;;;;5087209;28;20450;-85
2022/07/14 12:41:59;;;;;;;1.17;1.07;;;30.90;93.20;;;;;;5088283;28;20944;-85
2022/07/14 12:44:27;;;;;;;1.03;1.03;;;30.90;93.80;;;;;;5087094;28;20489;-86
2022/07/14 12:47:14;;;;;;;1.70;0.97;;;30.90;93.70;;;;;;5089282;28;20950;-85
2022/07/14 12:49:44;;;;;;;0.83;0.83;;;31.00;93.20;;;;;;5076449;28;20450;-85
2022/07/14 12:52:13;;;;;;;1.60;1.00;;;30.90;91.80;;;;;;5082400;28;20450;-85
2022/07/14 12:54:42;;;;;;;1.10;1.00;;;30.90;92.40;;;;;;5085040;28;20466;-85
2022/07/14 12:57:35;;;;;;;1.73;1.20;;;30.90;92.20;;;;;;5079673;28;20485;-84
2022/07/14 13:00:13;;;;;;;1.00;0.90;;;30.90;92.70;;;;;;5087939;28;22073;-84
2022/07/14 13:02:43;;;;;;;1.17;1.00;;;31.00;91.70;;;;;;5088604;28;20544;-85
2022/07/14 13:05:13;;;;;;;1.07;0.97;;;31.00;93.20;;;;;;5091573;28;20453;-85
2022/07/14 13:07:42;;;;;;;0.97;0.97;;;30.90;93.00;;;;;;5091314;28;20967;-85
2022/07/14 13:10:13;;;;;;;1.00;1.00;;;30.90;93.30;;;;;;5080442;28;20512;-85
2022/07/14 13:12:43;;;;;;;1.10;0.80;;;30.90;92.10;;;;;;5079031;28;20488;-85
2022/07/14 13:15:15;;;;;;;1.10;1.00;;;30.90;92.10;;;;;;5087708;28;21259;-85
2022/07/14 13:17:55;;;;;;;0.90;0.90;;;30.90;91.70;;;;;;5090994;28;20460;-85
2022/07/14 13:20:53;;;;;;;2.87;0.93;;;30.90;91.40;;;;;;5086141;28;20441;-85